Rina Amoretti — IBRR — position and weather

sailwx.info

Track history (hours):
 
Tides and Currents Weather Stations Pressure Air Temp Water Temp Dewpoint Dewpoint Depression Visibility Wind Speed Wind Dir Waves Ship Positions

Rina Amoretti

Last reported at 2017-Jul-21 11:24 UTC. Time now 2017-Jul-21 18:55 UTC.
Position N 37°18' E 015°24'.

Length 120 m; draft 5.8 m.

Type: Tanker. MMSI: 247197000.

Date/timePositionNaut miles runAvg speedWind from/ knotsBaromVisibWave heightAir tempDewpointWater temp
2017-Jul-21 11:24N 37°18' E 015°24'713.0
2017-Jul-21 10:51N 37°23' E 015°31'613.2
2017-Jul-21 10:23N 37°28' E 015°36'512.7
2017-Jul-21 10:00N 37°31' E 015°41'612.7
2017-Jul-21 09:30N 37°36' E 015°46'713.1
2017-Jul-21 08:56N 37°41' E 015°52'913.6
2017-Jul-21 08:16N 37°48' E 016°01'1113.9
2017-Jul-21 07:27N 37°55' E 016°11'3413.4
2017-Jul-21 04:55N 38°20' E 016°41'613.4
2017-Jul-21 04:30N 38°24' E 016°46'713.4
2017-Jul-21 04:00N 38°28' E 016°52'2013.6
2017-Jul-21 02:30N 38°43' E 017°10'713.6
2017-Jul-21 02:00N 38°47' E 017°17'713.7
2017-Jul-21 01:30N 38°52' E 017°23'713.8
2017-Jul-21 01:00N 38°57' E 017°29'713.6
2017-Jul-21 00:30N 39°02' E 017°35'713.3
2017-Jul-20 23:59N 39°07' E 017°41'613.0
2017-Jul-20 23:30N 39°12' E 017°47'612.8
2017-Jul-20 23:00N 39°16' E 017°53'612.9
2017-Jul-20 22:30N 39°21' E 017°58'712.7
2017-Jul-20 21:56N 39°28' E 018°02'612.8
2017-Jul-20 21:30N 39°32' E 018°06'713.1
2017-Jul-20 21:00N 39°37' E 018°13'7011.5
2017-Jul-20 14:54N 40°47' E 018°12'19713.1
2017-Jul-19 23:52N 43°08' E 015°06'1413.6
2017-Jul-19 22:51N 43°18' E 014°55'913.5
2017-Jul-19 22:09N 43°26' E 014°47'213.4
2017-Jul-19 22:00N 43°27' E 014°45'713.5
2017-Jul-19 21:30N 43°33' E 014°39'813.6
2017-Jul-19 20:55N 43°39' E 014°32'713.6
2017-Jul-19 20:23N 43°45' E 014°26'513.5
2017-Jul-19 20:00N 43°49' E 014°22'713.6
2017-Jul-19 19:30N 43°54' E 014°16'713.6
2017-Jul-19 19:01N 43°59' E 014°10'713.5
2017-Jul-19 18:30N 44°05' E 014°05'713.4
2017-Jul-19 18:00N 44°10' E 013°59'713.3
2017-Jul-19 17:30N 44°16' E 013°54'713.4
2017-Jul-19 17:00N 44°21' E 013°48'612.7
2017-Jul-19 16:30N 44°27' E 013°52'713.4
2017-Jul-19 16:00N 44°33' E 013°58'613.2
2017-Jul-19 15:30N 44°38' E 014°03'713.1
2017-Jul-19 15:00N 44°44' E 014°06'812.9
2017-Jul-19 14:23N 44°52' E 014°10'513.5
2017-Jul-19 13:58N 44°57' E 014°11'715.0
2017-Jul-19 13:30N 45°04' E 014°13'713.3
2017-Jul-19 12:59N 45°11' E 014°16'613.0
2017-Jul-19 12:30N 45°14' E 014°24'5 1.7
2017-Jul-19 09:51N 45°17' E 014°28'3 7.3
2017-Jul-19 09:30N 45°16' E 014°25'3 6.2
2017-Jul-19 09:00N 45°13' E 014°26'  
Track history (hours):
 
Tides and Currents Weather Stations Pressure Air Temp Water Temp Dewpoint Dewpoint Depression Visibility Wind Speed Wind Dir Waves Ship Positions

Rina Amoretti

Last reported at 2017-Jul-21 11:24 UTC. Time now 2017-Jul-21 18:55 UTC.
Position N 37°18' E 015°24'.

Length 120 m; draft 5.8 m.

Type: Tanker. MMSI: 247197000.

Date/timePositionNaut miles runAvg speedWind from/ knotsBaromVisibWave heightAir tempDewpointWater temp
2017-Jul-21 11:24N 37°18' E 015°24'713.0
2017-Jul-21 10:51N 37°23' E 015°31'613.2
2017-Jul-21 10:23N 37°28' E 015°36'512.7
2017-Jul-21 10:00N 37°31' E 015°41'612.7
2017-Jul-21 09:30N 37°36' E 015°46'713.1
2017-Jul-21 08:56N 37°41' E 015°52'913.6
2017-Jul-21 08:16N 37°48' E 016°01'1113.9
2017-Jul-21 07:27N 37°55' E 016°11'3413.4
2017-Jul-21 04:55N 38°20' E 016°41'613.4
2017-Jul-21 04:30N 38°24' E 016°46'713.4
2017-Jul-21 04:00N 38°28' E 016°52'2013.6
2017-Jul-21 02:30N 38°43' E 017°10'713.6
2017-Jul-21 02:00N 38°47' E 017°17'713.7
2017-Jul-21 01:30N 38°52' E 017°23'713.8
2017-Jul-21 01:00N 38°57' E 017°29'713.6
2017-Jul-21 00:30N 39°02' E 017°35'713.3
2017-Jul-20 23:59N 39°07' E 017°41'613.0
2017-Jul-20 23:30N 39°12' E 017°47'612.8
2017-Jul-20 23:00N 39°16' E 017°53'612.9
2017-Jul-20 22:30N 39°21' E 017°58'712.7
2017-Jul-20 21:56N 39°28' E 018°02'612.8
2017-Jul-20 21:30N 39°32' E 018°06'713.1
2017-Jul-20 21:00N 39°37' E 018°13'7011.5
2017-Jul-20 14:54N 40°47' E 018°12'19713.1
2017-Jul-19 23:52N 43°08' E 015°06'1413.6
2017-Jul-19 22:51N 43°18' E 014°55'913.5
2017-Jul-19 22:09N 43°26' E 014°47'213.4
2017-Jul-19 22:00N 43°27' E 014°45'713.5
2017-Jul-19 21:30N 43°33' E 014°39'813.6
2017-Jul-19 20:55N 43°39' E 014°32'713.6
2017-Jul-19 20:23N 43°45' E 014°26'513.5
2017-Jul-19 20:00N 43°49' E 014°22'713.6
2017-Jul-19 19:30N 43°54' E 014°16'713.6
2017-Jul-19 19:01N 43°59' E 014°10'713.5
2017-Jul-19 18:30N 44°05' E 014°05'713.4
2017-Jul-19 18:00N 44°10' E 013°59'713.3
2017-Jul-19 17:30N 44°16' E 013°54'713.4
2017-Jul-19 17:00N 44°21' E 013°48'612.7
2017-Jul-19 16:30N 44°27' E 013°52'713.4
2017-Jul-19 16:00N 44°33' E 013°58'613.2
2017-Jul-19 15:30N 44°38' E 014°03'713.1
2017-Jul-19 15:00N 44°44' E 014°06'812.9
2017-Jul-19 14:23N 44°52' E 014°10'513.5
2017-Jul-19 13:58N 44°57' E 014°11'715.0
2017-Jul-19 13:30N 45°04' E 014°13'713.3
2017-Jul-19 12:59N 45°11' E 014°16'613.0
2017-Jul-19 12:30N 45°14' E 014°24'5 1.7
2017-Jul-19 09:51N 45°17' E 014°28'3 7.3
2017-Jul-19 09:30N 45°16' E 014°25'3 6.2
2017-Jul-19 09:00N 45°13' E 014°26'  

Dump ship's entire track history